Time;durP1;ratioP1;P1;durP2;ratioP2;P2;SDS_P1;SDS_P2;PMS_P1;PMS_P2;Temp;Humidity;BMP_temperature;BMP_pressure;BME280_temperature;BME280_humidity;BME280_pressure;Samples;Min_cycle;Max_cycle;Signal;HPM_P1;HPM_P2
2022/07/21 00:01:08;;;;;;;;;5.80;5.20;36.40;99.90;;;;;;5043160;28;8849;-75
2022/07/21 00:03:41;;;;;;;;;4.60;4.60;36.50;99.90;;;;;;5041839;28;8865;-75
2022/07/21 00:06:13;;;;;;;;;3.60;3.60;36.40;99.90;;;;;;5055124;28;8858;-75
2022/07/21 00:08:42;;;;;;;;;4.00;4.00;36.20;99.90;;;;;;5040544;28;8846;-74
2022/07/21 00:11:12;;;;;;;;;4.00;3.00;36.10;99.90;;;;;;5036266;28;8877;-74
2022/07/21 00:13:44;;;;;;;;;4.00;4.00;35.90;99.90;;;;;;5075017;28;8851;-74
2022/07/21 00:16:15;;;;;;;;;4.80;4.80;35.80;99.90;;;;;;5033847;28;8846;-74
2022/07/21 00:18:52;;;;;;;;;5.20;4.80;35.90;99.90;;;;;;5042274;28;8843;-75
2022/07/21 00:21:23;;;;;;;;;3.00;3.00;35.90;99.90;;;;;;5042676;28;8829;-75
2022/07/21 00:23:53;;;;;;;;;3.60;3.60;36.00;99.90;;;;;;5051954;28;8848;-74
2022/07/21 00:26:23;;;;;;;;;6.00;4.40;35.90;99.90;;;;;;5044471;28;8839;-74
2022/07/21 00:28:56;;;;;;;;;6.00;5.20;35.80;99.90;;;;;;5039886;28;8889;-75
2022/07/21 00:31:27;;;;;;;;;4.00;4.00;35.80;99.90;;;;;;5044108;28;8862;-75
2022/07/21 00:33:57;;;;;;;;;4.80;3.20;35.90;99.90;;;;;;5046791;28;8812;-75
2022/07/21 00:36:29;;;;;;;;;5.00;4.00;35.90;99.90;;;;;;5044574;28;8846;-75
2022/07/21 00:38:58;;;;;;;;;3.40;3.20;35.80;99.90;;;;;;5045239;28;8855;-75
2022/07/21 00:41:30;;;;;;;;;6.40;6.40;35.70;99.90;;;;;;5042451;28;9623;-73
2022/07/21 00:44:01;;;;;;;;;5.00;5.00;35.70;99.90;;;;;;5045132;28;8849;-74
2022/07/21 00:46:31;;;;;;;;;4.60;4.60;35.60;99.90;;;;;;5043801;28;8838;-74
2022/07/21 00:49:01;;;;;;;;;3.60;3.60;35.60;99.90;;;;;;5044267;28;9048;-74
2022/07/21 00:51:31;;;;;;;;;4.00;4.00;35.50;99.90;;;;;;5047029;28;8835;-73
2022/07/21 00:54:01;;;;;;;;;5.00;4.80;35.50;99.90;;;;;;5042795;28;8842;-74
2022/07/21 00:56:34;;;;;;;;;5.80;5.80;35.40;99.90;;;;;;5022576;28;8842;-74
2022/07/21 00:59:04;;;;;;;;;6.20;5.20;35.30;99.90;;;;;;5048879;28;8828;-74
2022/07/21 01:01:35;;;;;;;;;5.80;5.00;35.20;99.90;;;;;;5055224;28;8827;-73
2022/07/21 01:04:06;;;;;;;;;4.40;4.40;35.10;99.90;;;;;;5052892;28;8844;-73
2022/07/21 01:06:37;;;;;;;;;5.60;5.60;35.00;99.90;;;;;;5048140;28;8869;-73
2022/07/21 01:09:10;;;;;;;;;4.00;4.00;34.90;99.90;;;;;;5042961;28;8885;-73
2022/07/21 01:11:45;;;;;;;;;5.80;4.00;34.90;99.90;;;;;;5048475;28;8823;-73
2022/07/21 01:14:15;;;;;;;;;5.00;4.80;34.80;99.90;;;;;;5045098;28;8877;-74
2022/07/21 01:16:47;;;;;;;;;4.60;4.20;34.70;99.90;;;;;;5041838;28;8813;-74
2022/07/21 01:19:17;;;;;;;;;6.20;5.20;34.70;99.90;;;;;;5036840;28;8849;-74
2022/07/21 01:21:51;;;;;;;;;6.80;5.60;34.70;99.90;;;;;;5045287;28;9597;-74
2022/07/21 01:24:21;;;;;;;;;5.00;5.00;34.70;99.90;;;;;;5050054;28;9549;-74
2022/07/21 01:26:52;;;;;;;;;6.00;6.00;34.60;99.90;;;;;;5044497;28;8861;-74
2022/07/21 01:29:23;;;;;;;;;5.60;5.60;34.50;99.90;;;;;;5054992;28;9565;-74
2022/07/21 01:31:55;;;;;;;;;7.00;7.00;34.50;99.90;;;;;;5060569;28;8999;-74
2022/07/21 01:34:24;;;;;;;;;7.40;6.20;34.40;99.90;;;;;;5038392;28;8850;-74
2022/07/21 01:36:56;;;;;;;;;7.80;7.80;34.30;99.90;;;;;;5044046;28;8856;-73
2022/07/21 01:42:20;;;;;;;;;9.20;9.20;34.20;99.90;;;;;;5039672;28;8835;-74
2022/07/21 01:44:50;;;;;;;;;8.40;8.40;34.10;99.90;;;;;;5044401;28;8857;-73
2022/07/21 01:47:22;;;;;;;;;9.20;8.20;34.00;99.90;;;;;;5047732;28;8820;-73
2022/07/21 01:49:53;;;;;;;;;5.20;5.20;34.00;99.90;;;;;;5032006;28;8842;-72
2022/07/21 01:52:23;;;;;;;;;11.60;9.40;33.90;99.90;;;;;;5043642;28;8830;-72
2022/07/21 01:54:52;;;;;;;;;9.60;7.20;33.80;99.90;;;;;;5049844;28;8845;-73
2022/07/21 01:57:24;;;;;;;;;9.20;9.20;33.80;99.90;;;;;;5044160;28;8860;-72
2022/07/21 01:59:58;;;;;;;;;9.00;8.80;33.70;99.90;;;;;;5047680;28;8857;-74
2022/07/21 02:02:28;;;;;;;;;11.20;10.00;33.70;99.90;;;;;;5044143;28;8864;-75
2022/07/21 02:05:00;;;;;;;;;10.00;10.00;33.60;99.90;;;;;;5049362;28;8831;-74
2022/07/21 02:07:33;;;;;;;;;6.60;5.60;33.50;99.90;;;;;;5045884;28;9447;-74
2022/07/21 02:10:06;;;;;;;;;7.60;7.60;33.40;99.90;;;;;;5052212;28;8850;-74
2022/07/21 02:12:36;;;;;;;;;7.80;7.80;32.70;99.90;;;;;;5048211;28;9553;-74
2022/07/21 02:15:12;;;;;;;;;7.40;7.40;32.70;99.90;;;;;;5054010;28;8863;-74
2022/07/21 02:17:43;;;;;;;;;7.80;7.20;33.00;99.90;;;;;;5045735;28;8877;-74
2022/07/21 02:20:16;;;;;;;;;6.80;6.80;33.10;99.90;;;;;;5054140;28;8822;-76
2022/07/21 02:22:47;;;;;;;;;5.00;5.00;33.10;99.90;;;;;;5046482;28;8818;-74
2022/07/21 02:25:18;;;;;;;;;5.80;5.80;33.10;99.90;;;;;;5050245;28;8822;-74
2022/07/21 02:27:51;;;;;;;;;4.00;4.00;33.00;99.90;;;;;;5060236;28;8839;-74
2022/07/21 02:30:21;;;;;;;;;3.20;2.20;32.90;99.90;;;;;;5055359;28;8835;-74
2022/07/21 02:32:53;;;;;;;;;3.00;3.00;32.90;99.90;;;;;;5057882;28;8854;-74
2022/07/21 02:35:23;;;;;;;;;2.80;1.80;32.80;99.90;;;;;;5046924;28;8807;-74
2022/07/21 02:37:53;;;;;;;;;2.00;2.00;32.80;99.90;;;;;;5057314;28;8888;-74
2022/07/21 02:40:26;;;;;;;;;5.00;2.80;32.70;99.90;;;;;;5037356;28;8831;-75
2022/07/21 02:43:00;;;;;;;;;3.80;3.60;32.60;99.90;;;;;;5034540;28;8831;-74
2022/07/21 02:45:34;;;;;;;;;3.00;3.00;32.70;99.90;;;;;;5028822;28;8896;-74
2022/07/21 02:48:07;;;;;;;;;2.00;2.00;32.50;99.90;;;;;;5041796;28;8825;-74
2022/07/21 02:50:39;;;;;;;;;4.40;3.00;32.40;99.90;;;;;;5051270;28;8852;-74
2022/07/21 02:53:17;;;;;;;;;3.00;2.60;32.40;99.90;;;;;;5059968;28;8822;-74
2022/07/21 02:55:53;;;;;;;;;2.20;2.00;32.30;99.90;;;;;;5042093;28;8842;-74
2022/07/21 02:58:29;;;;;;;;;2.80;2.80;32.20;99.90;;;;;;5049703;28;8843;-74
2022/07/21 03:01:03;;;;;;;;;4.80;1.00;32.20;99.90;;;;;;5050952;28;8808;-74
2022/07/21 03:03:39;;;;;;;;;5.40;2.60;32.20;99.90;;;;;;5035000;28;8838;-74
2022/07/21 03:06:12;;;;;;;;;2.40;2.40;32.20;99.90;;;;;;5033751;28;8859;-75
2022/07/21 03:08:44;;;;;;;;;2.80;2.80;32.10;99.90;;;;;;5035184;28;8883;-75
2022/07/21 03:11:14;;;;;;;;;2.80;2.80;32.00;99.90;;;;;;5045514;28;8832;-75
2022/07/21 03:13:52;;;;;;;;;1.60;1.00;31.90;99.90;;;;;;5041681;28;8820;-75
2022/07/21 03:16:22;;;;;;;;;1.00;1.00;31.80;99.90;;;;;;5023650;28;8843;-74
2022/07/21 03:18:52;;;;;;;;;2.60;2.00;31.80;99.90;;;;;;5042693;28;8878;-74
2022/07/21 03:21:24;;;;;;;;;2.20;2.00;31.80;99.90;;;;;;5034854;28;9497;-74
2022/07/21 03:24:14;;;;;;;;;3.80;3.00;31.80;99.90;;;;;;5038255;28;8858;-74
2022/07/21 03:26:56;;;;;;;;;2.00;2.00;31.60;99.90;;;;;;5062839;28;8828;-74
2022/07/21 03:29:35;;;;;;;;;3.60;2.20;31.60;99.90;;;;;;5045930;28;8818;-75
2022/07/21 03:32:06;;;;;;;;;1.40;1.40;31.50;99.90;;;;;;5040253;28;8860;-75
2022/07/21 03:34:35;;;;;;;;;2.00;2.00;31.40;99.90;;;;;;5047016;28;8835;-75
2022/07/21 03:37:06;;;;;;;;;3.60;3.60;31.40;99.90;;;;;;5092142;28;8840;-75
2022/07/21 03:39:37;;;;;;;;;2.00;2.00;31.30;99.90;;;;;;5082010;28;8893;-75
2022/07/21 03:42:14;;;;;;;;;2.40;2.00;31.30;99.90;;;;;;5048569;28;9607;-74
2022/07/21 03:44:49;;;;;;;;;3.60;2.40;31.20;99.90;;;;;;5046057;28;8843;-74
2022/07/21 03:47:19;;;;;;;;;3.20;1.60;31.20;99.90;;;;;;5044260;28;8873;-75
2022/07/21 03:49:53;;;;;;;;;1.80;1.00;31.10;99.90;;;;;;5046875;28;8822;-74
2022/07/21 03:52:24;;;;;;;;;1.80;1.00;31.10;99.90;;;;;;5046783;28;8871;-74
2022/07/21 03:55:09;;;;;;;;;5.20;3.20;31.10;99.90;;;;;;5053199;28;9583;-74
2022/07/21 03:57:48;;;;;;;;;5.00;3.20;31.00;99.90;;;;;;5045049;28;8838;-75
2022/07/21 04:00:21;;;;;;;;;2.40;2.40;30.90;99.90;;;;;;5049081;28;8987;-75
2022/07/21 04:02:54;;;;;;;;;2.40;2.40;31.00;99.90;;;;;;5062806;28;8820;-75
2022/07/21 04:05:25;;;;;;;;;3.00;3.00;30.70;99.90;;;;;;5057906;28;8848;-74
2022/07/21 04:07:57;;;;;;;;;5.20;2.00;30.50;99.90;;;;;;5041587;28;8834;-74
2022/07/21 04:10:31;;;;;;;;;1.80;1.80;30.50;99.90;;;;;;5040352;28;8807;-75
2022/07/21 04:13:02;;;;;;;;;4.00;3.00;30.60;99.90;;;;;;5038259;28;8800;-73
2022/07/21 04:15:39;;;;;;;;;3.80;3.00;30.60;99.90;;;;;;5048853;28;8811;-73
2022/07/21 04:18:09;;;;;;;;;5.20;3.40;30.50;99.90;;;;;;5056773;28;8835;-73
2022/07/21 04:20:40;;;;;;;;;5.00;3.00;30.40;99.90;;;;;;5042791;28;8842;-73
2022/07/21 04:23:12;;;;;;;;;3.40;3.00;30.40;99.90;;;;;;5039066;28;8831;-73
2022/07/21 04:25:41;;;;;;;;;5.20;3.00;30.30;99.90;;;;;;5037096;28;8822;-73
2022/07/21 04:28:12;;;;;;;;;3.00;3.00;30.20;99.90;;;;;;5042849;28;8865;-73
2022/07/21 04:30:41;;;;;;;;;5.40;3.40;30.10;99.90;;;;;;5038262;28;8851;-73
2022/07/21 04:33:17;;;;;;;;;3.20;3.20;30.10;99.90;;;;;;5040741;28;8869;-73
2022/07/21 04:35:50;;;;;;;;;8.00;6.00;30.00;99.90;;;;;;5061729;28;8820;-73
2022/07/21 04:38:21;;;;;;;;;3.60;3.60;29.90;99.90;;;;;;5041716;28;8865;-71
2022/07/21 04:40:51;;;;;;;;;6.20;3.00;29.90;99.90;;;;;;5038840;28;8879;-73
2022/07/21 04:43:22;;;;;;;;;7.20;5.60;29.90;99.90;;;;;;5047911;28;8870;-72
2022/07/21 04:45:52;;;;;;;;;5.20;2.80;29.80;99.90;;;;;;5044337;28;8839;-72
2022/07/21 04:48:24;;;;;;;;;5.00;3.00;29.80;99.90;;;;;;5055219;28;8831;-72
2022/07/21 04:50:55;;;;;;;;;4.00;4.00;29.70;99.90;;;;;;5044607;28;8822;-72
2022/07/21 04:53:25;;;;;;;;;4.00;4.00;29.60;99.90;;;;;;5042453;28;8863;-72
2022/07/21 04:55:57;;;;;;;;;6.60;3.00;29.70;99.90;;;;;;5038316;28;8921;-73
2022/07/21 04:58:30;;;;;;;;;4.80;4.00;29.60;99.90;;;;;;5038862;28;8834;-72
2022/07/21 05:01:00;;;;;;;;;2.20;2.00;29.60;99.90;;;;;;5038866;28;8861;-72
2022/07/21 05:03:31;;;;;;;;;5.40;4.40;29.50;99.90;;;;;;5038541;28;8855;-72
2022/07/21 05:06:01;;;;;;;;;4.00;4.00;29.60;99.90;;;;;;5037353;28;8832;-73
2022/07/21 05:08:32;;;;;;;;;3.00;3.00;29.50;99.90;;;;;;5055556;28;8827;-72
2022/07/21 05:11:05;;;;;;;;;4.60;3.60;29.40;99.90;;;;;;5040511;28;8843;-72
2022/07/21 05:13:37;;;;;;;;;3.60;3.40;29.30;99.90;;;;;;5044961;28;8845;-73
2022/07/21 05:16:08;;;;;;;;;3.40;3.20;29.20;99.90;;;;;;5055653;28;8860;-73
2022/07/21 05:18:38;;;;;;;;;5.20;4.20;29.20;99.90;;;;;;5054746;28;8846;-72
2022/07/21 05:21:09;;;;;;;;;5.80;4.80;29.20;99.90;;;;;;5041713;28;8843;-72
2022/07/21 05:23:39;;;;;;;;;7.20;5.00;29.10;99.90;;;;;;5041343;28;8839;-72
2022/07/21 05:26:09;;;;;;;;;5.00;5.00;29.10;99.90;;;;;;5058533;28;8870;-72
2022/07/21 05:28:39;;;;;;;;;3.80;3.60;29.00;99.90;;;;;;5042377;28;8870;-73
2022/07/21 05:31:11;;;;;;;;;3.60;2.60;29.00;99.90;;;;;;5042897;28;9642;-72
2022/07/21 05:33:42;;;;;;;;;5.40;4.80;28.90;99.90;;;;;;5043098;28;8845;-73
2022/07/21 05:36:15;;;;;;;;;6.40;5.60;29.00;99.90;;;;;;5045649;28;8811;-72
2022/07/21 05:38:46;;;;;;;;;4.60;3.00;28.90;99.90;;;;;;5074285;28;8831;-72
2022/07/21 05:41:15;;;;;;;;;5.00;5.00;28.80;99.90;;;;;;5039203;28;8850;-72
2022/07/21 05:43:45;;;;;;;;;5.60;3.40;28.80;99.90;;;;;;5044096;28;8855;-73
2022/07/21 05:46:15;;;;;;;;;5.40;5.00;28.70;99.90;;;;;;5042642;28;8862;-71
2022/07/21 05:48:45;;;;;;;;;3.20;2.60;28.80;99.90;;;;;;5044643;28;8795;-72
2022/07/21 05:51:15;;;;;;;;;6.20;5.00;28.70;99.90;;;;;;5045809;28;8843;-72
2022/07/21 05:53:47;;;;;;;;;3.80;3.80;28.60;99.90;;;;;;5039065;28;8876;-72
2022/07/21 05:56:16;;;;;;;;;3.00;3.00;28.80;99.90;;;;;;5045208;28;8834;-72
2022/07/21 05:58:49;;;;;;;;;3.80;3.40;28.60;99.90;;;;;;5042106;28;9597;-72
2022/07/21 06:01:22;;;;;;;;;4.40;4.20;28.60;99.90;;;;;;5077755;28;8834;-73
2022/07/21 06:03:56;;;;;;;;;7.60;5.40;28.50;99.90;;;;;;5045211;28;8850;-73
2022/07/21 06:06:31;;;;;;;;;9.60;5.80;28.60;99.90;;;;;;5062111;28;8865;-73
2022/07/21 06:09:00;;;;;;;;;4.80;3.00;28.50;99.90;;;;;;5051975;28;8823;-73
2022/07/21 06:11:32;;;;;;;;;4.60;4.00;28.30;99.90;;;;;;5077647;28;8878;-72
2022/07/21 06:14:04;;;;;;;;;5.00;4.20;28.30;99.90;;;;;;5058341;28;8842;-72
2022/07/21 06:16:37;;;;;;;;;4.80;4.80;28.30;99.90;;;;;;5044643;28;8822;-73
2022/07/21 06:19:07;;;;;;;;;4.00;4.00;28.30;99.90;;;;;;5061068;28;8863;-72
2022/07/21 06:21:42;;;;;;;;;4.60;4.60;28.30;99.90;;;;;;5040994;28;8831;-72
2022/07/21 06:24:19;;;;;;;;;4.40;4.40;28.30;99.90;;;;;;5057955;28;8851;-73
2022/07/21 06:26:50;;;;;;;;;6.00;3.00;28.10;99.90;;;;;;5036457;28;8915;-71
2022/07/21 06:29:20;;;;;;;;;4.80;4.80;28.10;99.90;;;;;;5040676;28;9574;-72
2022/07/21 06:31:51;;;;;;;;;3.40;3.40;28.10;99.90;;;;;;5043525;28;8880;-73
2022/07/21 06:34:20;;;;;;;;;4.40;4.40;28.00;99.90;;;;;;5041512;28;8817;-72
2022/07/21 06:36:53;;;;;;;;;2.80;2.80;28.20;99.90;;;;;;5069340;28;8892;-72
2022/07/21 06:39:23;;;;;;;;;4.00;4.00;28.10;99.90;;;;;;5059365;28;9654;-72
2022/07/21 06:41:55;;;;;;;;;7.20;4.60;28.10;99.90;;;;;;5040221;28;8839;-73
2022/07/21 06:44:28;;;;;;;;;7.00;5.60;28.00;99.90;;;;;;5038234;28;8877;-73
2022/07/21 06:47:04;;;;;;;;;4.40;4.40;27.90;99.90;;;;;;5056104;28;8830;-73
2022/07/21 06:49:34;;;;;;;;;5.40;5.40;27.80;99.90;;;;;;5071372;28;9560;-74
2022/07/21 06:52:07;;;;;;;;;4.80;4.00;27.80;99.90;;;;;;5041172;28;8807;-73
2022/07/21 06:54:40;;;;;;;;;4.80;4.80;27.90;99.90;;;;;;5054538;28;8846;-72
2022/07/21 06:57:13;;;;;;;;;6.00;4.20;27.80;99.90;;;;;;5040003;28;8865;-71
2022/07/21 06:59:43;;;;;;;;;5.00;5.00;27.80;99.90;;;;;;5037309;28;8819;-73
2022/07/21 07:02:17;;;;;;;;;6.20;4.00;27.80;99.90;;;;;;5037889;28;8871;-72
2022/07/21 07:04:49;;;;;;;;;4.40;4.40;27.80;99.90;;;;;;5073103;28;8835;-72
2022/07/21 07:07:18;;;;;;;;;4.40;4.40;27.80;99.90;;;;;;5038760;28;8872;-72
2022/07/21 07:09:48;;;;;;;;;6.00;4.80;27.80;99.90;;;;;;5054190;28;8879;-72
2022/07/21 07:12:23;;;;;;;;;5.40;5.40;27.70;99.90;;;;;;5037168;28;8878;-72
2022/07/21 07:15:15;;;;;;;;;6.40;6.40;27.70;99.90;;;;;;5058547;28;8866;-73
2022/07/21 07:17:45;;;;;;;;;6.80;5.20;27.60;99.90;;;;;;5039969;28;8856;-72
2022/07/21 07:20:17;;;;;;;;;6.80;4.60;27.60;99.90;;;;;;5039136;28;8857;-72
2022/07/21 07:22:50;;;;;;;;;8.20;6.20;27.60;99.90;;;;;;5044419;28;8826;-73
2022/07/21 07:25:21;;;;;;;;;6.60;6.00;27.50;99.90;;;;;;5042975;28;8827;-73
2022/07/21 07:28:01;;;;;;;;;7.00;6.20;27.50;99.90;;;;;;5039542;28;8817;-73
2022/07/21 07:30:31;;;;;;;;;8.40;8.00;27.60;99.90;;;;;;5065422;28;8837;-74
2022/07/21 07:33:01;;;;;;;;;7.60;5.00;27.50;99.90;;;;;;5042241;28;8845;-73
2022/07/21 07:35:43;;;;;;;;;8.40;5.60;27.50;99.90;;;;;;5038934;28;8851;-73
2022/07/21 07:38:14;;;;;;;;;5.60;5.20;27.40;99.90;;;;;;5044757;28;8810;-73
2022/07/21 07:40:45;;;;;;;;;7.00;6.25;27.40;99.90;;;;;;5067448;28;8849;-73
2022/07/21 07:43:16;;;;;;;;;6.00;6.00;27.30;99.90;;;;;;5071151;28;8862;-74
2022/07/21 07:45:51;;;;;;;;;6.60;6.20;27.40;99.90;;;;;;5036836;28;8825;-73
2022/07/21 07:48:23;;;;;;;;;5.20;5.20;27.40;99.90;;;;;;5039288;28;8863;-73
2022/07/21 07:50:54;;;;;;;;;4.80;4.80;27.40;99.90;;;;;;5037711;28;8873;-73
2022/07/21 07:53:30;;;;;;;;;6.20;6.20;27.30;99.90;;;;;;5034374;28;8832;-72
2022/07/21 07:56:00;;;;;;;;;3.40;3.20;27.30;99.90;;;;;;5040693;28;8866;-73
2022/07/21 07:58:30;;;;;;;;;5.20;2.80;27.10;99.90;;;;;;5041952;28;8839;-73
2022/07/21 08:01:01;;;;;;;;;6.40;6.40;27.10;99.90;;;;;;5038921;28;8868;-72
2022/07/21 08:03:40;;;;;;;;;8.00;8.00;27.20;99.90;;;;;;5041669;28;8849;-72
2022/07/21 08:06:21;;;;;;;;;7.00;7.00;27.30;99.90;;;;;;5039255;28;8827;-72
2022/07/21 08:08:54;;;;;;;;;7.40;7.20;27.20;99.90;;;;;;5055691;28;8873;-74
2022/07/21 08:11:27;;;;;;;;;5.60;5.60;27.20;99.90;;;;;;5041917;28;8815;-73
2022/07/21 08:13:56;;;;;;;;;8.80;6.20;27.30;99.90;;;;;;5045624;28;8821;-73
2022/07/21 08:16:32;;;;;;;;;6.00;6.00;27.30;99.90;;;;;;5039822;28;8842;-73
2022/07/21 08:19:05;;;;;;;;;4.20;4.20;27.20;99.90;;;;;;5056518;28;8847;-73
2022/07/21 08:21:36;;;;;;;;;5.40;4.80;27.30;99.90;;;;;;5036077;28;8841;-73
2022/07/21 08:24:29;;;;;;;;;6.60;6.20;27.30;99.90;;;;;;5037020;28;8838;-73
2022/07/21 08:27:04;;;;;;;;;9.00;9.00;27.30;99.90;;;;;;5029161;28;8905;-73
2022/07/21 08:29:34;;;;;;;;;6.80;6.80;27.20;99.90;;;;;;5039774;28;8838;-73
2022/07/21 08:32:05;;;;;;;;;7.20;7.20;27.20;99.90;;;;;;5039149;28;8862;-73
2022/07/21 08:34:37;;;;;;;;;6.20;5.80;27.20;99.90;;;;;;5071688;28;8858;-73
2022/07/21 08:37:10;;;;;;;;;7.20;7.20;27.20;99.90;;;;;;5077424;28;8812;-73
2022/07/21 08:39:41;;;;;;;;;9.60;8.20;27.10;99.90;;;;;;5043119;28;8803;-73
2022/07/21 08:42:15;;;;;;;;;1.60;1.60;27.20;99.90;;;;;;5041166;28;8834;-73
2022/07/21 08:44:52;;;;;;;;;6.75;6.75;27.20;99.90;;;;;;5037665;28;8859;-72
2022/07/21 08:47:25;;;;;;;;;10.50;8.00;27.10;99.90;;;;;;5036385;28;8834;-72
2022/07/21 08:49:59;;;;;;;;;7.00;7.00;27.20;99.90;;;;;;5050363;28;8893;-72
2022/07/21 08:52:28;;;;;;;;;5.25;5.25;27.20;99.90;;;;;;5024106;28;9549;-73
2022/07/21 08:55:00;;;;;;;;;8.00;8.00;27.30;99.90;;;;;;5040174;28;8858;-72
2022/07/21 08:57:30;;;;;;;;;8.25;7.75;27.20;99.90;;;;;;5053304;28;8869;-72
2022/07/21 09:00:02;;;;;;;;;6.75;6.50;27.20;99.90;;;;;;5072689;28;8874;-72
2022/07/21 09:02:35;;;;;;;;;11.00;10.00;27.20;99.90;;;;;;5070830;28;8880;-74
2022/07/21 09:05:09;;;;;;;;;8.25;6.75;27.10;99.90;;;;;;5039946;28;8857;-72
2022/07/21 09:07:55;;;;;;;;;7.00;5.25;27.10;99.90;;;;;;5045481;28;8850;-72
2022/07/21 09:10:32;;;;;;;;;11.50;10.25;27.00;99.90;;;;;;5072638;28;8846;-73
2022/07/21 09:13:06;;;;;;;;;8.75;8.75;27.10;99.90;;;;;;5054986;28;8876;-73
2022/07/21 09:15:36;;;;;;;;;4.00;4.00;27.10;99.90;;;;;;5053060;28;8842;-73
2022/07/21 09:18:17;;;;;;;;;7.50;7.50;27.20;99.90;;;;;;5043954;28;8856;-73
2022/07/21 09:20:52;;;;;;;;;8.00;8.00;27.20;99.90;;;;;;5061461;28;8835;-72
2022/07/21 09:23:23;;;;;;;;;11.50;11.50;27.10;99.90;;;;;;5060505;28;8914;-73
2022/07/21 09:25:57;;;;;;;;;7.25;7.25;27.00;99.90;;;;;;5069857;28;8822;-72
2022/07/21 09:28:30;;;;;;;;;7.25;7.25;27.00;99.90;;;;;;5042980;28;8848;-73
2022/07/21 09:31:11;;;;;;;;;8.50;8.50;27.00;99.90;;;;;;5054531;28;8854;-72
2022/07/21 09:33:45;;;;;;;;;9.00;9.00;27.00;99.90;;;;;;5074590;28;9937;-72
2022/07/21 09:36:20;;;;;;;;;7.00;7.00;26.90;99.90;;;;;;5054833;28;8917;-72
2022/07/21 09:38:51;;;;;;;;;6.50;6.50;26.90;99.90;;;;;;5056476;28;8847;-72
2022/07/21 09:41:26;;;;;;;;;7.50;7.50;26.90;99.90;;;;;;5041813;28;8877;-72
2022/07/21 09:43:57;;;;;;;;;9.00;9.00;26.90;99.90;;;;;;5041699;28;8814;-72
2022/07/21 09:46:29;;;;;;;;;6.50;6.50;26.80;99.90;;;;;;5040551;28;8846;-72
2022/07/21 09:49:02;;;;;;;;;8.50;8.00;26.80;99.90;;;;;;5071830;28;8826;-72
2022/07/21 09:51:52;;;;;;;;;7.75;7.75;26.80;99.90;;;;;;5044893;28;8886;-72
2022/07/21 09:54:21;;;;;;;;;10.00;10.00;26.80;99.90;;;;;;5039583;28;8846;-72
2022/07/21 09:56:57;;;;;;;;;10.00;9.25;26.70;99.90;;;;;;5042531;28;8822;-72
2022/07/21 09:59:28;;;;;;;;;10.00;8.50;26.70;99.90;;;;;;5059371;28;8816;-72
2022/07/21 10:02:31;;;;;;;;;4.00;4.00;26.70;99.90;;;;;;5028418;28;8957;-72
2022/07/21 10:05:02;;;;;;;;;8.00;8.00;26.70;99.90;;;;;;5040631;28;8810;-72
2022/07/21 10:07:38;;;;;;;;;10.75;9.50;26.60;99.90;;;;;;5037501;28;8888;-72
2022/07/21 10:10:09;;;;;;;;;9.50;7.50;26.60;99.90;;;;;;5040754;28;8861;-72
2022/07/21 10:12:42;;;;;;;;;9.50;9.50;26.60;99.90;;;;;;5038411;28;8864;-72
2022/07/21 10:15:14;;;;;;;;;9.00;7.25;26.60;99.90;;;;;;5041492;28;8823;-72
2022/07/21 10:17:48;;;;;;;;;4.00;4.00;26.60;99.90;;;;;;5042584;28;9621;-72
2022/07/21 10:20:32;;;;;;;;;10.25;10.25;26.50;99.90;;;;;;5054746;28;8834;-72
2022/07/21 10:23:43;;;;;;;;;4.00;4.00;26.50;99.90;;;;;;5038188;28;8832;-72
2022/07/21 10:26:13;;;;;;;;;8.50;8.50;26.60;99.90;;;;;;5056984;28;8865;-72
2022/07/21 10:28:45;;;;;;;;;9.75;8.00;26.50;99.90;;;;;;5037992;28;8835;-72
2022/07/21 10:31:20;;;;;;;;;10.00;8.33;26.50;99.90;;;;;;5042448;28;8940;-72
2022/07/21 10:33:50;;;;;;;;;10.25;10.25;26.50;99.90;;;;;;5038766;28;8826;-72
2022/07/21 10:36:31;;;;;;;;;8.75;7.25;26.50;99.90;;;;;;5043250;28;8830;-72
2022/07/21 10:39:10;;;;;;;;;8.50;8.50;26.50;99.90;;;;;;5055713;28;8839;-72
2022/07/21 10:41:51;;;;;;;;;6.25;6.25;26.40;99.90;;;;;;5067996;28;8884;-73
2022/07/21 10:44:30;;;;;;;;;9.50;9.50;26.40;99.90;;;;;;5040693;28;8846;-72
2022/07/21 10:47:05;;;;;;;;;10.00;10.00;26.50;99.90;;;;;;5057596;28;8834;-72
2022/07/21 10:49:54;;;;;;;;;7.25;7.25;26.50;99.90;;;;;;5041602;28;8857;-73
2022/07/21 10:52:41;;;;;;;;;8.00;8.00;26.40;99.90;;;;;;5039667;28;8872;-73
2022/07/21 10:55:13;;;;;;;;;9.50;8.25;26.40;99.90;;;;;;5036086;28;9005;-73
2022/07/21 10:57:48;;;;;;;;;13.25;12.25;26.30;99.90;;;;;;5052316;28;8871;-72
2022/07/21 11:00:36;;;;;;;;;9.25;9.25;26.40;99.90;;;;;;5041349;28;8874;-73
2022/07/21 11:03:29;;;;;;;;;13.50;10.50;26.30;99.90;;;;;;5038865;28;8861;-73
2022/07/21 11:06:14;;;;;;;;;9.75;9.75;26.30;99.90;;;;;;5041653;28;8863;-72
2022/07/21 11:08:47;;;;;;;;;10.00;8.75;26.30;99.90;;;;;;5046732;28;8822;-72
2022/07/21 11:11:21;;;;;;;;;13.25;11.25;26.20;99.90;;;;;;5038703;28;9522;-72
2022/07/21 11:14:06;;;;;;;;;12.50;11.50;26.20;99.90;;;;;;5042611;28;8849;-73
2022/07/21 11:16:52;;;;;;;;;9.75;9.75;26.20;99.90;;;;;;5040278;28;8834;-73
2022/07/21 11:19:49;;;;;;;;;8.50;8.50;26.10;99.90;;;;;;5043140;28;8807;-73
2022/07/21 11:22:24;;;;;;;;;11.25;11.25;26.20;99.90;;;;;;5076773;28;8843;-72
2022/07/21 11:25:01;;;;;;;;;6.75;6.75;26.10;99.90;;;;;;5045356;28;8841;-72
2022/07/21 11:27:34;;;;;;;;;10.50;10.50;26.20;99.90;;;;;;5042406;28;8834;-72
2022/07/21 11:30:08;;;;;;;;;12.00;11.00;26.10;99.90;;;;;;5040271;28;8831;-72
2022/07/21 11:32:40;;;;;;;;;10.25;10.25;26.10;99.90;;;;;;5039849;28;8857;-73
2022/07/21 11:35:14;;;;;;;;;9.00;9.00;26.10;99.90;;;;;;5038667;28;8857;-72
2022/07/21 11:37:47;;;;;;;;;10.50;10.00;26.00;99.90;;;;;;5043265;28;8820;-72
2022/07/21 11:40:20;;;;;;;;;11.00;10.25;26.00;99.90;;;;;;5040563;28;8867;-72
2022/07/21 11:42:53;;;;;;;;;11.25;11.25;26.00;99.90;;;;;;5039472;28;8822;-72
2022/07/21 11:45:25;;;;;;;;;8.50;8.50;26.00;99.90;;;;;;5040236;28;8862;-72
2022/07/21 11:47:56;;;;;;;;;10.50;10.50;26.10;99.90;;;;;;5038718;28;8854;-72
2022/07/21 11:50:27;;;;;;;;;10.50;10.50;26.00;99.90;;;;;;5038373;28;8885;-72
2022/07/21 11:53:02;;;;;;;;;12.25;9.50;26.00;99.90;;;;;;5041544;28;8822;-72
2022/07/21 11:55:36;;;;;;;;;12.25;12.25;26.10;99.90;;;;;;5042235;28;8834;-72
2022/07/21 11:58:14;;;;;;;;;10.50;9.75;26.00;99.90;;;;;;5041429;28;8847;-72
2022/07/21 12:00:46;;;;;;;;;11.50;9.50;26.10;99.90;;;;;;5040502;28;8861;-72
2022/07/21 12:03:17;;;;;;;;;12.00;12.00;26.10;99.90;;;;;;5037337;28;8862;-72
2022/07/21 12:05:49;;;;;;;;;11.00;11.00;26.10;99.90;;;;;;5036341;28;9533;-72
2022/07/21 12:08:18;;;;;;;;;13.25;12.25;26.10;99.90;;;;;;5053550;28;8895;-72
2022/07/21 12:10:48;;;;;;;;;13.75;13.75;26.10;99.90;;;;;;5022431;28;8863;-71
2022/07/21 12:13:19;;;;;;;;;11.50;11.50;26.00;99.90;;;;;;5043866;28;8858;-72
2022/07/21 12:15:50;;;;;;;;;14.50;13.25;26.10;99.90;;;;;;5069373;28;8842;-72
2022/07/21 12:18:25;;;;;;;;;11.00;11.00;26.00;99.90;;;;;;5037767;28;8845;-72
2022/07/21 12:21:07;;;;;;;;;8.75;8.75;26.10;99.90;;;;;;5074333;28;8842;-73
2022/07/21 12:23:37;;;;;;;;;11.50;10.25;26.10;99.90;;;;;;5072009;28;8822;-72
2022/07/21 12:26:22;;;;;;;;;10.75;10.75;26.20;99.90;;;;;;5055728;28;8901;-72
2022/07/21 12:28:59;;;;;;;;;12.25;12.25;26.20;99.90;;;;;;5040836;28;8850;-72
2022/07/21 12:31:34;;;;;;;;;11.00;11.00;26.20;99.90;;;;;;5054298;28;8885;-72
2022/07/21 12:34:24;;;;;;;;;11.25;11.25;26.30;99.90;;;;;;5055289;28;8843;-72
2022/07/21 12:36:56;;;;;;;;;7.00;7.00;26.30;99.90;;;;;;5056412;28;8883;-72
2022/07/21 12:42:38;;;;;;;;;13.00;13.00;26.30;99.90;;;;;;5036540;28;8845;-72
2022/07/21 12:45:20;;;;;;;;;13.75;12.75;26.40;99.90;;;;;;5072452;28;8822;-72
2022/07/21 12:48:13;;;;;;;;;13.50;11.50;26.50;99.90;;;;;;5044863;28;8814;-73
2022/07/21 12:50:42;;;;;;;;;10.75;10.75;26.70;99.90;;;;;;5055391;28;8865;-71
2022/07/21 12:53:13;;;;;;;;;11.75;11.75;26.70;99.90;;;;;;5042384;28;8877;-71
2022/07/21 12:55:44;;;;;;;;;11.00;11.00;26.70;99.90;;;;;;5041409;28;8819;-72
2022/07/21 12:58:18;;;;;;;;;10.50;10.50;26.80;99.90;;;;;;5053673;28;8847;-73
2022/07/21 13:00:48;;;;;;;;;13.00;13.00;26.80;99.90;;;;;;5056459;28;8834;-73
2022/07/21 13:03:24;;;;;;;;;9.00;9.00;26.80;99.90;;;;;;5035952;28;8862;-73
2022/07/21 13:05:59;;;;;;;;;11.00;11.00;26.90;99.90;;;;;;5051236;28;8838;-72
2022/07/21 13:08:30;;;;;;;;;10.75;9.25;26.90;99.90;;;;;;5039652;28;8838;-73
2022/07/21 13:11:01;;;;;;;;;11.00;11.00;27.00;99.90;;;;;;5040630;28;8843;-73
2022/07/21 13:13:34;;;;;;;;;13.50;11.00;27.10;99.90;;;;;;5040572;28;8842;-72
2022/07/21 13:16:05;;;;;;;;;8.25;8.00;27.10;99.90;;;;;;5040493;28;8838;-72
2022/07/21 13:18:35;;;;;;;;;12.00;12.00;27.20;99.90;;;;;;5037938;28;8799;-72
2022/07/21 13:21:06;;;;;;;;;12.00;11.50;27.20;99.90;;;;;;5039563;28;8826;-73
2022/07/21 13:23:36;;;;;;;;;11.50;11.00;27.20;99.90;;;;;;5039054;28;8885;-73
2022/07/21 13:26:09;;;;;;;;;11.25;11.25;27.30;99.90;;;;;;5040531;28;8859;-71
2022/07/21 13:28:44;;;;;;;;;12.50;11.00;27.20;99.90;;;;;;5051345;28;8863;-72
2022/07/21 13:31:15;;;;;;;;;11.50;11.50;27.30;99.90;;;;;;5052106;28;8843;-72